Time;durP1;ratioP1;P1;durP2;ratioP2;P2;SDS_P1;SDS_P2;PMS_P1;PMS_P2;Temp;Humidity;BMP_temperature;BMP_pressure;BME280_temperature;BME280_humidity;BME280_pressure;Samples;Min_cycle;Max_cycle;Signal;HPM_P1;HPM_P2
2023/05/05 00:00:00;;;;;;;11.38;10.15;;;;;;;;;;10029662;28;20054;-74
2023/05/05 00:04:56;;;;;;;11.55;10.40;;;;;;;;;;10054333;28;20083;-74
2023/05/05 00:09:50;;;;;;;10.52;8.70;;;;;;;;;;10042078;28;20120;-74
2023/05/05 00:14:43;;;;;;;12.70;9.98;;;;;;;;;;10050045;28;20102;-74
2023/05/05 00:19:37;;;;;;;10.48;9.43;;;;;;;;;;10066765;28;20048;-75
2023/05/05 00:24:31;;;;;;;13.32;11.60;;;;;;;;;;10059316;28;20456;-75
2023/05/05 00:29:25;;;;;;;11.48;9.40;;;;;;;;;;10040458;28;20108;-75
2023/05/05 00:34:18;;;;;;;12.35;10.43;;;;;;;;;;10049447;28;20074;-74
2023/05/05 00:39:11;;;;;;;13.27;9.60;;;;;;;;;;10020818;28;20050;-74
2023/05/05 00:44:04;;;;;;;10.95;9.32;;;;;;;;;;10032172;28;20420;-75
2023/05/05 00:48:58;;;;;;;11.45;10.30;;;;;;;;;;10036539;28;20083;-74
2023/05/05 00:53:51;;;;;;;14.98;10.60;;;;;;;;;;10037695;28;20050;-73
2023/05/05 00:58:45;;;;;;;13.27;11.38;;;;;;;;;;10038711;28;20049;-72
2023/05/05 01:03:42;;;;;;;12.63;10.30;;;;;;;;;;10064420;28;20050;-75
2023/05/05 01:09:00;;;;;;;11.65;10.43;;;;;;;;;;10031333;28;20064;-75
2023/05/05 01:14:08;;;;;;;13.00;10.20;;;;;;;;;;10048856;28;20416;-75
2023/05/05 01:19:46;;;;;;;11.73;10.52;;;;;;;;;;10038350;28;20053;-76
2023/05/05 01:24:57;;;;;;;14.15;9.45;;;;;;;;;;10026426;28;20390;-75
2023/05/05 01:30:07;;;;;;;16.13;9.35;;;;;;;;;;10026494;28;20448;-75
2023/05/05 01:35:13;;;;;;;11.70;9.35;;;;;;;;;;10049710;28;20490;-70
2023/05/05 01:40:06;;;;;;;10.55;9.27;;;;;;;;;;10039616;28;20544;-72
2023/05/05 01:45:03;;;;;;;11.18;8.98;;;;;;;;;;10048819;28;20053;-72
2023/05/05 01:49:56;;;;;;;9.80;8.80;;;;;;;;;;10051362;28;20057;-72
2023/05/05 01:55:08;;;;;;;8.10;7.30;;;;;;;;;;10025021;28;20061;-71
2023/05/05 02:00:24;;;;;;;9.48;8.55;;;;;;;;;;10047706;28;20054;-72
2023/05/05 02:05:37;;;;;;;8.90;8.00;;;;;;;;;;10037554;28;20049;-72
2023/05/05 02:10:31;;;;;;;10.48;8.70;;;;;;;;;;10054319;28;20124;-72
2023/05/05 02:15:27;;;;;;;8.68;7.78;;;;;;;;;;10051208;28;20053;-72
2023/05/05 02:20:20;;;;;;;10.63;9.38;;;;;;;;;;10049535;28;20061;-72
2023/05/05 02:25:12;;;;;;;7.90;7.20;;;;;;;;;;10048912;28;20444;-72
2023/05/05 02:30:09;;;;;;;9.82;8.82;;;;;;;;;;10035798;28;20136;-73
2023/05/05 02:35:13;;;;;;;12.13;9.32;;;;;;;;;;10020722;28;20049;-73
2023/05/05 02:40:10;;;;;;;11.68;9.02;;;;;;;;;;10027148;28;20145;-74
2023/05/05 02:45:08;;;;;;;9.18;8.27;;;;;;;;;;10046683;28;20084;-74
2023/05/05 02:50:07;;;;;;;13.23;8.40;;;;;;;;;;10051531;28;20056;-73
2023/05/05 02:55:05;;;;;;;;;;;;;;;;;;10056440;28;20405;-76
2023/05/05 03:00:05;;;;;;;11.13;8.68;;;;;;;;;;10042328;28;19925;-74
2023/05/05 03:05:10;;;;;;;8.90;8.00;;;;;;;;;;10024961;28;20057;-72
2023/05/05 03:10:17;;;;;;;10.82;9.02;;;;;;;;;;10039955;28;20416;-71
2023/05/05 03:15:14;;;;;;;11.35;7.78;;;;;;;;;;10059885;28;20049;-71
2023/05/05 03:20:11;;;;;;;11.48;8.43;;;;;;;;;;10031232;28;20481;-72
2023/05/05 03:25:08;;;;;;;11.93;8.05;;;;;;;;;;10029858;28;20073;-71
2023/05/05 03:30:03;;;;;;;9.32;8.43;;;;;;;;;;10031634;28;20046;-72
2023/05/05 03:34:57;;;;;;;10.75;7.75;;;;;;;;;;10046570;28;20087;-72
2023/05/05 03:39:55;;;;;;;8.82;7.93;;;;;;;;;;10051865;28;20054;-72
2023/05/05 03:44:47;;;;;;;8.75;7.75;;;;;;;;;;10024236;28;20045;-72
2023/05/05 03:49:41;;;;;;;9.18;8.07;;;;;;;;;;10034150;28;20053;-73
2023/05/05 03:54:34;;;;;;;8.27;7.40;;;;;;;;;;10048711;28;20080;-73
2023/05/05 03:59:28;;;;;;;9.52;8.55;;;;;;;;;;10046056;28;20135;-73
2023/05/05 04:04:21;;;;;;;12.32;8.40;;;;;;;;;;10044097;28;20054;-73
2023/05/05 04:09:15;;;;;;;9.38;8.27;;;;;;;;;;10028975;28;20054;-73
2023/05/05 04:14:09;;;;;;;8.50;7.57;;;;;;;;;;10029298;28;20054;-73
2023/05/05 04:19:02;;;;;;;10.73;6.95;;;;;;;;;;10030547;28;20049;-73
2023/05/05 04:23:57;;;;;;;9.13;7.18;;;;;;;;;;10028055;28;20042;-73
2023/05/05 04:28:50;;;;;;;7.88;7.07;;;;;;;;;;10037079;28;20050;-73
2023/05/05 04:33:44;;;;;;;10.38;9.13;;;;;;;;;;10033123;28;20083;-73
2023/05/05 04:38:38;;;;;;;10.15;8.40;;;;;;;;;;10030073;28;20053;-73
2023/05/05 04:43:31;;;;;;;8.15;7.13;;;;;;;;;;10059781;28;20081;-72
2023/05/05 04:48:25;;;;;;;8.43;7.57;;;;;;;;;;10039614;28;20573;-73
2023/05/05 04:53:18;;;;;;;13.38;8.93;;;;;;;;;;10044536;28;20504;-74
2023/05/05 04:58:11;;;;;;;12.88;10.88;;;;;;;;;;10045678;28;20062;-74
2023/05/05 05:03:06;;;;;;;13.85;9.80;;;;;;;;;;10044967;28;20057;-73
2023/05/05 05:07:59;;;;;;;13.65;8.27;;;;;;;;;;10041662;28;20409;-73
2023/05/05 05:12:52;;;;;;;11.82;9.23;;;;;;;;;;10046923;28;20468;-73
2023/05/05 05:17:46;;;;;;;11.30;9.13;;;;;;;;;;10057066;28;20037;-74
2023/05/05 05:22:40;;;;;;;9.95;8.95;;;;;;;;;;10062368;28;20057;-75
2023/05/05 05:27:40;;;;;;;13.45;8.68;;;;;;;;;;10061535;28;20052;-74
2023/05/05 05:32:35;;;;;;;8.98;7.93;;;;;;;;;;10025472;28;20959;-72
2023/05/05 05:37:29;;;;;;;11.63;8.50;;;;;;;;;;10058529;28;20045;-74
2023/05/05 05:42:23;;;;;;;16.58;7.95;;;;;;;;;;10041884;28;20468;-77
2023/05/05 05:47:17;;;;;;;13.68;9.55;;;;;;;;;;10043162;28;20048;-73
2023/05/05 05:52:10;;;;;;;14.52;9.80;;;;;;;;;;10038047;28;20156;-74
2023/05/05 05:57:04;;;;;;;14.52;9.15;;;;;;;;;;10051108;28;20053;-72
2023/05/05 06:01:57;;;;;;;15.48;11.18;;;;;;;;;;10026884;28;20054;-71
2023/05/05 06:06:50;;;;;;;13.85;12.02;;;;;;;;;;10042811;28;20104;-68
2023/05/05 06:11:43;;;;;;;13.65;11.70;;;;;;;;;;10047871;28;20517;-69
2023/05/05 06:16:36;;;;;;;14.15;12.10;;;;;;;;;;10034785;28;20400;-67
2023/05/05 06:21:34;;;;;;;20.52;11.38;;;;;;;;;;10051427;28;20073;-70
2023/05/05 06:26:28;;;;;;;16.65;11.48;;;;;;;;;;10055588;28;20103;-68
2023/05/05 06:31:21;;;;;;;13.65;12.25;;;;;;;;;;10041279;28;20053;-71
2023/05/05 06:36:17;;;;;;;19.90;13.48;;;;;;;;;;10055027;28;20049;-71
2023/05/05 06:41:10;;;;;;;20.23;14.07;;;;;;;;;;10049647;28;20054;-69
2023/05/05 06:46:04;;;;;;;20.30;12.55;;;;;;;;;;10049522;28;20432;-71
2023/05/05 06:50:58;;;;;;;15.07;11.15;;;;;;;;;;10034718;28;20077;-72
2023/05/05 06:55:51;;;;;;;14.15;12.38;;;;;;;;;;10031312;28;20513;-70
2023/05/05 07:00:45;;;;;;;27.95;14.82;;;;;;;;;;10030031;28;20058;-70
2023/05/05 07:05:38;;;;;;;19.45;15.18;;;;;;;;;;10042279;28;20140;-71
2023/05/05 07:10:32;;;;;;;19.75;17.83;;;;;;;;;;10040580;28;20058;-70
2023/05/05 07:15:26;;;;;;;18.02;16.40;;;;;;;;;;10054184;28;20060;-83
2023/05/05 07:20:21;;;;;;;13.68;12.38;;;;;;;;;;10051468;28;20104;-72
2023/05/05 07:25:15;;;;;;;14.88;12.75;;;;;;;;;;10057069;28;20650;-73
2023/05/05 07:30:09;;;;;;;14.00;12.50;;;;;;;;;;10054004;28;20108;-73
2023/05/05 07:35:08;;;;;;;13.45;12.05;;;;;;;;;;10047567;28;20089;-72
2023/05/05 07:40:01;;;;;;;14.60;11.32;;;;;;;;;;10045443;28;20095;-73
2023/05/05 07:44:54;;;;;;;14.80;13.18;;;;;;;;;;10047924;28;20118;-72
2023/05/05 07:49:48;;;;;;;12.52;11.32;;;;;;;;;;10056943;28;20058;-73
2023/05/05 07:54:41;;;;;;;14.20;12.65;;;;;;;;;;10030144;28;20058;-74
2023/05/05 07:59:34;;;;;;;11.32;10.30;;;;;;;;;;10056111;28;20058;-73
2023/05/05 08:04:28;;;;;;;14.38;12.55;;;;;;;;;;10037341;28;20481;-73
2023/05/05 08:09:21;;;;;;;13.77;12.35;;;;;;;;;;10060630;28;20103;-72
2023/05/05 08:14:16;;;;;;;17.45;13.57;;;;;;;;;;10055844;28;20039;-73
2023/05/05 08:19:09;;;;;;;14.18;12.95;;;;;;;;;;10056919;28;20056;-72
2023/05/05 08:24:19;;;;;;;13.18;11.02;;;;;;;;;;10050690;28;20476;-73
2023/05/05 08:29:13;;;;;;;12.80;11.50;;;;;;;;;;10034673;28;20061;-73
2023/05/05 08:34:06;;;;;;;20.30;10.57;;;;;;;;;;10035160;28;20057;-73
2023/05/05 08:38:59;;;;;;;10.70;9.80;;;;;;;;;;10037596;28;20207;-73
2023/05/05 08:43:51;;;;;;;10.68;9.68;;;;;;;;;;10044787;28;20528;-73
2023/05/05 08:48:45;;;;;;;12.95;9.45;;;;;;;;;;10030570;28;20140;-73
2023/05/05 08:53:53;;;;;;;13.30;8.80;;;;;;;;;;10034343;28;20065;-73
2023/05/05 08:58:47;;;;;;;14.15;8.25;;;;;;;;;;10059322;28;20045;-73
2023/05/05 09:03:40;;;;;;;19.80;9.90;;;;;;;;;;10047102;28;20054;-73
2023/05/05 09:08:34;;;;;;;16.80;9.23;;;;;;;;;;10033120;28;20421;-71
2023/05/05 09:13:29;;;;;;;8.45;6.70;;;;;;;;;;10050258;28;20115;-70
2023/05/05 09:18:24;;;;;;;9.85;7.47;;;;;;;;;;10060824;28;20132;-70
2023/05/05 09:23:19;;;;;;;6.90;6.20;;;;;;;;;;10044253;28;20457;-70
2023/05/05 09:28:13;;;;;;;5.30;4.60;;;;;;;;;;10057731;28;20559;-70
2023/05/05 09:33:06;;;;;;;6.32;4.78;;;;;;;;;;10034409;28;20050;-71
2023/05/05 09:38:11;;;;;;;11.20;5.50;;;;;;;;;;10040851;28;20057;-70
2023/05/05 09:43:04;;;;;;;5.25;4.75;;;;;;;;;;10045103;28;20057;-71
2023/05/05 09:47:58;;;;;;;6.28;4.65;;;;;;;;;;10061804;28;20061;-71
2023/05/05 09:53:02;;;;;;;6.38;4.57;;;;;;;;;;10036343;28;20049;-71
2023/05/05 09:57:56;;;;;;;7.45;3.33;;;;;;;;;;10049888;28;20052;-71
2023/05/05 10:02:50;;;;;;;5.15;2.53;;;;;;;;;;10058264;28;20057;-71
2023/05/05 10:07:44;;;;;;;4.95;3.40;;;;;;;;;;10044422;28;20186;-71
2023/05/05 10:12:38;;;;;;;6.68;2.92;;;;;;;;;;10044530;28;20436;-72
2023/05/05 10:17:36;;;;;;;4.80;3.05;;;;;;;;;;10031413;28;20501;-72
2023/05/05 10:22:33;;;;;;;8.05;2.83;;;;;;;;;;10041336;28;20068;-72
2023/05/05 10:27:28;;;;;;;4.10;2.38;;;;;;;;;;10039544;28;20124;-72
2023/05/05 10:32:34;;;;;;;5.17;2.80;;;;;;;;;;10048289;28;20061;-72
2023/05/05 10:37:46;;;;;;;;;;;;;;;;;;10041512;28;20053;-73
2023/05/05 10:42:40;;;;;;;8.15;2.35;;;;;;;;;;10051992;28;20015;-72
2023/05/05 10:47:35;;;;;;;4.03;2.40;;;;;;;;;;10039143;28;20459;-72
2023/05/05 10:52:45;;;;;;;3.50;2.78;;;;;;;;;;10052297;28;20513;-72
2023/05/05 10:57:41;;;;;;;5.03;1.92;;;;;;;;;;10053712;28;20386;-72
2023/05/05 11:02:35;;;;;;;3.22;2.08;;;;;;;;;;10049285;28;20089;-72
2023/05/05 11:07:27;;;;;;;4.68;2.47;;;;;;;;;;10037980;28;20366;-72
2023/05/05 11:12:21;;;;;;;2.63;2.03;;;;;;;;;;10060088;28;20071;-72
2023/05/05 11:17:45;;;;;;;4.78;2.63;;;;;;;;;;10047915;28;20045;-72
2023/05/05 11:23:03;;;;;;;4.40;2.83;;;;;;;;;;10044184;28;20088;-74
2023/05/05 11:28:06;;;;;;;6.43;3.28;;;;;;;;;;10055271;28;20061;-74
2023/05/05 11:33:27;;;;;;;5.63;3.22;;;;;;;;;;10062717;28;20412;-74
2023/05/05 11:38:35;;;;;;;4.53;3.30;;;;;;;;;;10045061;28;20053;-79
2023/05/05 11:43:29;;;;;;;6.03;3.05;;;;;;;;;;10060251;28;20566;-80
2023/05/05 11:48:24;;;;;;;5.80;3.63;;;;;;;;;;10044993;28;20516;-80
2023/05/05 11:53:18;;;;;;;3.25;2.42;;;;;;;;;;10053308;28;20711;-81
2023/05/05 11:58:20;;;;;;;2.90;2.60;;;;;;;;;;10050788;28;20391;-79
2023/05/05 12:03:13;;;;;;;4.45;2.42;;;;;;;;;;10052133;28;20069;-81
2023/05/05 12:08:07;;;;;;;3.63;2.95;;;;;;;;;;10049935;28;20084;-81
2023/05/05 12:13:00;;;;;;;4.32;3.13;;;;;;;;;;10040111;28;21304;-80
2023/05/05 12:17:54;;;;;;;3.40;3.10;;;;;;;;;;10041682;28;20112;-81
2023/05/05 12:22:48;;;;;;;25.52;4.13;;;;;;;;;;10051995;28;20463;-81
2023/05/05 12:27:41;;;;;;;3.20;2.30;;;;;;;;;;10052307;28;20049;-81
2023/05/05 12:32:34;;;;;;;5.38;2.67;;;;;;;;;;10058849;28;20124;-82
2023/05/05 12:37:28;;;;;;;2.58;2.10;;;;;;;;;;10042293;28;20058;-82
2023/05/05 12:42:22;;;;;;;5.70;2.58;;;;;;;;;;10053098;28;20561;-81
2023/05/05 12:47:30;;;;;;;3.72;1.98;;;;;;;;;;10048681;28;20059;-82
2023/05/05 12:52:23;;;;;;;3.28;2.35;;;;;;;;;;10041753;28;20567;-79
2023/05/05 12:57:17;;;;;;;7.00;2.08;;;;;;;;;;10056873;28;20096;-82
2023/05/05 13:02:13;;;;;;;5.70;2.08;;;;;;;;;;10052535;28;20124;-81
2023/05/05 13:07:14;;;;;;;1.83;1.73;;;;;;;;;;10055759;28;20060;-81
2023/05/05 13:12:10;;;;;;;2.15;1.63;;;;;;;;;;10051100;28;20505;-81
2023/05/05 13:17:03;;;;;;;3.33;1.95;;;;;;;;;;10054147;28;20398;-81
2023/05/05 13:21:58;;;;;;;1.95;1.75;;;;;;;;;;10040235;28;20050;-81
2023/05/05 13:26:52;;;;;;;3.97;2.08;;;;;;;;;;10057204;28;20064;-81
2023/05/05 13:31:45;;;;;;;3.05;2.65;;;;;;;;;;10058308;28;20136;-82
2023/05/05 13:36:39;;;;;;;3.20;1.70;;;;;;;;;;10040631;28;20429;-80
2023/05/05 13:41:33;;;;;;;2.78;1.98;;;;;;;;;;10052650;28;20504;-81
2023/05/05 13:46:27;;;;;;;2.80;2.60;;;;;;;;;;10054637;28;20095;-79
2023/05/05 13:51:20;;;;;;;2.53;2.33;;;;;;;;;;10042051;28;20153;-80
2023/05/05 13:56:13;;;;;;;4.55;3.38;;;;;;;;;;10029464;28;20141;-68
2023/05/05 14:01:10;;;;;;;4.38;2.67;;;;;;;;;;10053678;28;20080;-71
2023/05/05 14:06:02;;;;;;;5.50;2.67;;;;;;;;;;10045545;28;20099;-70
2023/05/05 14:10:57;;;;;;;3.45;2.88;;;;;;;;;;10045818;28;20108;-70
2023/05/05 14:15:51;;;;;;;3.05;2.72;;;;;;;;;;10040221;28;20050;-70
2023/05/05 14:20:45;;;;;;;2.72;2.38;;;;;;;;;;10037700;28;20053;-70
2023/05/05 14:25:39;;;;;;;3.38;3.08;;;;;;;;;;10051392;28;20140;-70
2023/05/05 14:30:34;;;;;;;2.55;2.22;;;;;;;;;;10047850;28;20042;-69
2023/05/05 14:35:27;;;;;;;3.97;2.60;;;;;;;;;;10054207;28;20053;-68
2023/05/05 14:40:21;;;;;;;5.80;3.67;;;;;;;;;;10042994;28;20089;-70
2023/05/05 14:45:15;;;;;;;3.90;2.50;;;;;;;;;;10045441;28;20053;-70
2023/05/05 14:50:10;;;;;;;2.90;2.63;;;;;;;;;;10045055;28;20734;-69
2023/05/05 14:55:06;;;;;;;2.55;2.35;;;;;;;;;;10051676;28;20551;-71
2023/05/05 15:00:00;;;;;;;2.60;2.40;;;;;;;;;;10047660;28;20057;-69
2023/05/05 15:04:54;;;;;;;7.60;2.50;;;;;;;;;;10048762;28;20100;-71
2023/05/05 15:09:47;;;;;;;3.85;2.78;;;;;;;;;;10050747;28;20084;-70
2023/05/05 15:14:41;;;;;;;2.97;2.30;;;;;;;;;;10046648;28;20425;-69
2023/05/05 15:19:36;;;;;;;3.25;2.95;;;;;;;;;;10035932;28;20085;-70
2023/05/05 15:24:29;;;;;;;6.50;2.92;;;;;;;;;;10038180;28;20144;-69
2023/05/05 15:29:22;;;;;;;3.25;2.88;;;;;;;;;;10050565;28;20042;-68
2023/05/05 15:34:16;;;;;;;2.97;2.70;;;;;;;;;;10039921;28;20072;-70
2023/05/05 15:39:09;;;;;;;3.45;2.60;;;;;;;;;;10040993;28;20513;-68
2023/05/05 15:44:03;;;;;;;7.35;2.83;;;;;;;;;;10047034;28;20060;-68
2023/05/05 15:48:57;;;;;;;3.83;2.72;;;;;;;;;;10044600;28;20065;-68
2023/05/05 15:53:51;;;;;;;2.67;2.30;;;;;;;;;;10031279;28;20080;-70
2023/05/05 15:58:44;;;;;;;2.95;2.40;;;;;;;;;;10046415;28;20053;-69
2023/05/05 16:03:38;;;;;;;4.32;2.47;;;;;;;;;;10038882;28;20049;-68
2023/05/05 16:08:32;;;;;;;3.35;2.60;;;;;;;;;;10045089;28;20049;-68
2023/05/05 16:13:26;;;;;;;4.28;2.58;;;;;;;;;;10044461;28;20073;-68
2023/05/05 16:18:19;;;;;;;4.85;2.80;;;;;;;;;;10051287;28;20046;-68
2023/05/05 16:23:13;;;;;;;2.63;2.42;;;;;;;;;;10036446;28;20046;-68
2023/05/05 16:28:06;;;;;;;4.10;2.67;;;;;;;;;;10039668;28;20061;-68
2023/05/05 16:32:59;;;;;;;3.63;2.70;;;;;;;;;;10030973;28;20053;-69
2023/05/05 16:37:52;;;;;;;4.13;2.60;;;;;;;;;;10038683;28;20145;-68
2023/05/05 16:42:46;;;;;;;3.33;2.88;;;;;;;;;;10054674;28;20074;-69
2023/05/05 16:47:39;;;;;;;5.68;2.75;;;;;;;;;;10056092;28;20045;-69
2023/05/05 16:52:32;;;;;;;3.22;2.67;;;;;;;;;;10047023;28;20096;-68
2023/05/05 16:57:26;;;;;;;5.70;3.05;;;;;;;;;;10034536;28;20115;-68
2023/05/05 17:02:19;;;;;;;4.88;3.00;;;;;;;;;;10049114;28;20050;-70
2023/05/05 17:07:12;;;;;;;3.00;2.80;;;;;;;;;;10047093;28;20050;-69
2023/05/05 17:12:05;;;;;;;3.15;2.55;;;;;;;;;;10045108;28;20049;-68
2023/05/05 17:16:59;;;;;;;3.58;3.05;;;;;;;;;;10033295;28;20094;-67
2023/05/05 17:21:51;;;;;;;5.05;3.20;;;;;;;;;;10035466;28;20088;-66
2023/05/05 17:26:45;;;;;;;7.40;3.55;;;;;;;;;;10043398;28;20518;-67
2023/05/05 17:31:39;;;;;;;3.38;2.55;;;;;;;;;;10042271;28;20107;-67
2023/05/05 17:36:34;;;;;;;2.70;2.50;;;;;;;;;;10051901;28;20560;-67
2023/05/05 17:41:28;;;;;;;11.57;3.17;;;;;;;;;;10043633;28;20587;-67
2023/05/05 17:46:22;;;;;;;2.92;2.65;;;;;;;;;;10026882;28;20065;-66
2023/05/05 17:51:16;;;;;;;4.25;2.50;;;;;;;;;;10049607;28;20084;-66
2023/05/05 17:56:10;;;;;;;3.17;2.80;;;;;;;;;;10047202;28;20064;-64
2023/05/05 18:01:03;;;;;;;8.20;3.20;;;;;;;;;;10050706;28;20100;-66
2023/05/05 18:05:56;;;;;;;3.28;2.80;;;;;;;;;;10044204;28;20081;-65
2023/05/05 18:10:50;;;;;;;3.78;2.88;;;;;;;;;;10046113;28;20084;-69
2023/05/05 18:15:44;;;;;;;3.63;2.90;;;;;;;;;;10044471;28;20050;-72
2023/05/05 18:20:37;;;;;;;9.68;3.25;;;;;;;;;;10045684;28;20049;-73
2023/05/05 18:25:31;;;;;;;5.03;3.00;;;;;;;;;;10031474;28;20056;-72
2023/05/05 18:30:25;;;;;;;7.63;3.00;;;;;;;;;;10046940;28;20053;-70
2023/05/05 18:35:18;;;;;;;4.35;2.88;;;;;;;;;;10050196;28;20042;-71
2023/05/05 18:40:13;;;;;;;5.72;3.22;;;;;;;;;;10021556;28;20057;-76
2023/05/05 18:45:09;;;;;;;4.20;3.30;;;;;;;;;;10040865;28;20041;-73
2023/05/05 18:50:04;;;;;;;5.22;3.25;;;;;;;;;;10046019;28;20053;-72
2023/05/05 18:54:58;;;;;;;3.88;3.20;;;;;;;;;;10029479;28;20413;-74
2023/05/05 18:59:52;;;;;;;5.15;3.83;;;;;;;;;;10051703;28;20416;-73
2023/05/05 19:04:46;;;;;;;7.55;3.50;;;;;;;;;;10042915;28;20080;-73
2023/05/05 19:09:39;;;;;;;5.50;4.00;;;;;;;;;;10054915;28;20057;-70
2023/05/05 19:14:32;;;;;;;4.88;3.92;;;;;;;;;;10051619;28;20072;-71
2023/05/05 19:19:25;;;;;;;5.38;4.03;;;;;;;;;;10045033;28;20061;-69
2023/05/05 19:24:19;;;;;;;5.20;4.22;;;;;;;;;;10047574;28;20053;-69
2023/05/05 19:29:14;;;;;;;6.45;5.45;;;;;;;;;;10052637;28;20088;-72
2023/05/05 19:34:08;;;;;;;6.22;5.50;;;;;;;;;;10039803;28;20066;-69
2023/05/05 19:39:03;;;;;;;5.50;4.88;;;;;;;;;;10043358;28;20058;-71
2023/05/05 19:43:58;;;;;;;6.18;4.90;;;;;;;;;;10047136;28;20460;-70
2023/05/05 19:48:51;;;;;;;5.82;5.32;;;;;;;;;;10035735;28;20413;-71
2023/05/05 19:53:44;;;;;;;9.27;5.30;;;;;;;;;;10030466;28;20064;-68
2023/05/05 19:59:00;;;;;;;4.85;4.32;;;;;;;;;;10045543;28;20139;-70
2023/05/05 20:03:54;;;;;;;7.88;4.57;;;;;;;;;;10067915;28;20125;-72
2023/05/05 20:08:47;;;;;;;9.52;6.65;;;;;;;;;;10046585;28;20049;-72
2023/05/05 20:13:41;;;;;;;10.45;5.80;;;;;;;;;;10047291;28;20059;-70
2023/05/05 20:18:36;;;;;;;6.75;6.03;;;;;;;;;;10041931;28;20496;-73
2023/05/05 20:23:29;;;;;;;8.35;5.60;;;;;;;;;;10037612;28;20057;-74
2023/05/05 20:28:22;;;;;;;9.98;6.03;;;;;;;;;;10044562;28;20060;-72
2023/05/05 20:33:16;;;;;;;7.35;5.82;;;;;;;;;;10067105;28;20045;-66
2023/05/05 20:38:08;;;;;;;9.05;5.25;;;;;;;;;;10046912;28;20136;-67
2023/05/05 20:43:02;;;;;;;10.38;5.93;;;;;;;;;;10061452;28;20180;-69
2023/05/05 20:47:56;;;;;;;6.80;5.80;;;;;;;;;;10043877;28;20524;-68
2023/05/05 20:52:50;;;;;;;7.50;6.00;;;;;;;;;;10048026;28;20054;-68
2023/05/05 20:57:44;;;;;;;8.70;6.20;;;;;;;;;;10045551;28;20500;-68
2023/05/05 21:02:38;;;;;;;8.23;5.93;;;;;;;;;;10044389;28;20452;-67
2023/05/05 21:07:33;;;;;;;8.65;6.28;;;;;;;;;;10052972;28;20049;-66
2023/05/05 21:12:27;;;;;;;8.65;7.30;;;;;;;;;;10048994;28;20053;-67
2023/05/05 21:17:22;;;;;;;7.47;6.78;;;;;;;;;;10054886;28;20129;-65
2023/05/05 21:22:16;;;;;;;8.35;6.93;;;;;;;;;;10050747;28;20132;-67
2023/05/05 21:27:10;;;;;;;7.28;6.28;;;;;;;;;;10044358;28;20459;-69
2023/05/05 21:32:04;;;;;;;7.95;6.03;;;;;;;;;;10045954;28;20081;-67
2023/05/05 21:36:58;;;;;;;15.30;6.45;;;;;;;;;;10046404;28;20436;-66
2023/05/05 21:41:51;;;;;;;8.55;5.15;;;;;;;;;;10051641;28;20129;-66
2023/05/05 21:46:45;;;;;;;6.85;5.22;;;;;;;;;;10051949;28;20064;-66
2023/05/05 21:51:40;;;;;;;6.22;5.72;;;;;;;;;;10047333;28;20089;-67
2023/05/05 21:56:34;;;;;;;7.25;6.55;;;;;;;;;;10050620;28;20069;-67
2023/05/05 22:01:26;;;;;;;7.20;6.10;;;;;;;;;;10054630;28;20045;-67
2023/05/05 22:06:19;;;;;;;7.68;5.72;;;;;;;;;;10056678;28;20142;-67
2023/05/05 22:11:12;;;;;;;5.80;5.30;;;;;;;;;;10046486;28;20455;-66
2023/05/05 22:16:09;;;;;;;6.95;5.75;;;;;;;;;;10041892;28;20049;-65
2023/05/05 22:21:03;;;;;;;7.63;6.05;;;;;;;;;;10037166;28;20045;-65
2023/05/05 22:25:56;;;;;;;7.95;5.82;;;;;;;;;;10040953;28;20112;-68
2023/05/05 22:30:49;;;;;;;7.70;6.20;;;;;;;;;;10047830;28;20077;-67
2023/05/05 22:35:43;;;;;;;6.03;5.43;;;;;;;;;;10033627;28;20509;-69
2023/05/05 22:40:37;;;;;;;9.80;5.97;;;;;;;;;;10043488;28;20049;-69
2023/05/05 22:45:31;;;;;;;8.38;5.80;;;;;;;;;;10054485;28;20050;-67
2023/05/05 22:50:24;;;;;;;10.73;5.47;;;;;;;;;;10057627;28;20420;-66
2023/05/05 22:55:19;;;;;;;9.95;6.78;;;;;;;;;;10056173;28;20045;-66
2023/05/05 23:00:13;;;;;;;7.13;6.43;;;;;;;;;;10059186;28;20570;-67
2023/05/05 23:05:07;;;;;;;7.43;6.05;;;;;;;;;;10052174;28;20608;-67
2023/05/05 23:10:01;;;;;;;7.88;6.68;;;;;;;;;;10050855;28;20061;-67
2023/05/05 23:14:55;;;;;;;7.68;6.97;;;;;;;;;;10057415;28;20057;-67
2023/05/05 23:19:48;;;;;;;9.95;8.05;;;;;;;;;;10054655;28;20069;-66
2023/05/05 23:24:42;;;;;;;8.90;7.60;;;;;;;;;;10049934;28;20080;-67
2023/05/05 23:29:35;;;;;;;6.47;5.97;;;;;;;;;;10041607;28;20136;-67
2023/05/05 23:34:29;;;;;;;8.23;6.63;;;;;;;;;;10052078;28;20715;-68
2023/05/05 23:39:22;;;;;;;7.68;6.97;;;;;;;;;;10051913;28;20053;-67
2023/05/05 23:44:16;;;;;;;10.48;6.68;;;;;;;;;;10047680;28;20103;-69
2023/05/05 23:49:12;;;;;;;10.30;6.43;;;;;;;;;;10048708;28;20062;-67
2023/05/05 23:54:08;;;;;;;8.02;6.15;;;;;;;;;;10058587;28;20536;-68
2023/05/05 23:59:01;;;;;;;9.13;6.55;;;;;;;;;;10053015;28;20049;-67
